createdAt,value
2023-07-18T00:03:17.135Z,26.70
2023-07-18T00:09:19.630Z,26.60
2023-07-18T00:15:22.473Z,26.40
2023-07-18T00:21:24.785Z,26.30
2023-07-18T00:27:27.154Z,26.30
2023-07-18T00:33:30.381Z,26.30
2023-07-18T00:39:32.696Z,26.20
2023-07-18T00:45:35.322Z,26.20
2023-07-18T00:51:37.720Z,26.10
2023-07-18T00:57:42.982Z,26.00
2023-07-18T01:03:45.894Z,25.90
2023-07-18T01:09:48.950Z,25.80
2023-07-18T01:15:51.536Z,25.80
2023-07-18T01:21:54.187Z,25.80
2023-07-18T01:28:01.046Z,25.60
2023-07-18T01:34:04.337Z,25.40
2023-07-18T01:40:09.772Z,25.20
2023-07-18T01:46:12.775Z,25.20
2023-07-18T01:52:15.297Z,25.10
2023-07-18T01:58:17.703Z,25.00
2023-07-18T02:04:20.520Z,24.90
2023-07-18T02:10:23.500Z,24.90
2023-07-18T02:16:25.778Z,24.80
2023-07-18T02:22:30.363Z,24.70
2023-07-18T02:28:32.810Z,24.60
2023-07-18T02:34:35.219Z,24.40
2023-07-18T02:40:37.540Z,24.30
2023-07-18T02:46:40.324Z,24.20
2023-07-18T02:52:43.004Z,24.10
2023-07-18T02:58:45.397Z,24.10
2023-07-18T03:04:50.938Z,24.10
2023-07-18T03:10:53.555Z,24.10
2023-07-18T03:16:55.974Z,24.30
2023-07-18T03:22:58.815Z,24.40
2023-07-18T03:29:01.604Z,24.60
2023-07-18T03:35:04.528Z,24.80
2023-07-18T03:41:06.892Z,25.00
2023-07-18T03:47:20.108Z,25.40
2023-07-18T03:53:24.295Z,25.60
2023-07-18T03:59:27.281Z,25.90
2023-07-18T04:05:29.854Z,26.30
2023-07-18T04:11:32.839Z,26.60
2023-07-18T04:17:35.407Z,26.90
2023-07-18T04:23:37.909Z,27.30
2023-07-18T04:29:40.432Z,27.60
2023-07-18T04:35:43.325Z,27.80
2023-07-18T04:41:55.287Z,28.10
2023-07-18T04:47:58.396Z,28.30
2023-07-18T04:54:01.436Z,28.40
2023-07-18T05:00:10.152Z,28.60
2023-07-18T05:06:13.016Z,29.20
2023-07-18T05:12:15.567Z,29.70
2023-07-18T05:18:19.218Z,29.80
2023-07-18T05:24:21.759Z,30.10
2023-07-18T05:30:24.045Z,30.20
2023-07-18T05:36:27.026Z,30.40
2023-07-18T05:42:29.283Z,30.60
2023-07-18T05:48:32.379Z,32.70
2023-07-18T05:54:36.482Z,35.90
2023-07-18T06:00:40.872Z,37.60
2023-07-18T06:06:45.015Z,38.60
2023-07-18T06:12:47.401Z,39.80
2023-07-18T06:18:49.823Z,40.00
2023-07-18T06:24:52.267Z,39.90
2023-07-18T06:30:58.631Z,40.10
2023-07-18T06:37:03.853Z,40.40
2023-07-18T06:43:06.328Z,41.30
2023-07-18T06:49:08.762Z,40.40
2023-07-18T06:55:12.573Z,41.40
2023-07-18T07:01:15.052Z,41.10
2023-07-18T07:07:17.380Z,41.60
2023-07-18T07:13:19.753Z,40.80
2023-07-18T07:19:22.203Z,40.70
2023-07-18T07:25:28.472Z,41.50
2023-07-18T07:31:31.104Z,41.70
2023-07-18T07:37:33.566Z,42.40
2023-07-18T07:43:35.872Z,42.80
2023-07-18T07:49:38.329Z,42.80
2023-07-18T07:55:41.641Z,43.20
2023-07-18T08:01:44.376Z,43.00
2023-07-18T08:07:46.809Z,42.60
2023-07-18T08:13:49.050Z,43.60
2023-07-18T08:19:51.458Z,43.80
2023-07-18T08:25:55.023Z,44.10
2023-07-18T08:31:57.361Z,44.40
2023-07-18T08:37:59.745Z,44.30
2023-07-18T08:44:03.919Z,44.90
2023-07-18T08:50:08.409Z,45.00
2023-07-18T08:56:11.516Z,45.60
2023-07-18T09:02:14.023Z,45.10
2023-07-18T09:08:16.509Z,45.20
2023-07-18T09:14:32.652Z,45.10
2023-07-18T09:20:35.300Z,44.50
2023-07-18T09:26:37.665Z,44.60
2023-07-18T09:32:40.990Z,44.50
2023-07-18T09:38:45.379Z,44.60
2023-07-18T09:44:51.914Z,44.60
2023-07-18T09:50:57.832Z,44.30
2023-07-18T09:57:13.820Z,44.30
2023-07-18T10:03:16.185Z,44.50
2023-07-18T10:09:19.464Z,43.90
2023-07-18T10:15:22.343Z,43.90
2023-07-18T10:21:36.433Z,44.10
2023-07-18T10:27:41.486Z,43.60
2023-07-18T10:34:15.635Z,43.60
2023-07-18T10:40:41.115Z,43.50
2023-07-18T10:46:43.765Z,43.50
2023-07-18T10:52:46.638Z,43.40
2023-07-18T10:58:51.285Z,43.00
2023-07-18T11:04:55.408Z,42.50
2023-07-18T11:11:05.584Z,41.00
2023-07-18T11:17:15.398Z,41.00
2023-07-18T11:23:18.002Z,40.10
2023-07-18T11:29:26.852Z,39.90
2023-07-18T11:35:30.633Z,39.80
2023-07-18T11:41:37.247Z,40.30
2023-07-18T11:47:45.618Z,39.80
2023-07-18T11:53:48.379Z,38.40
2023-07-18T11:59:51.037Z,39.90
2023-07-18T12:05:53.263Z,40.80
2023-07-18T12:11:55.921Z,41.10
2023-07-18T12:17:58.352Z,41.10
2023-07-18T12:24:00.782Z,42.20
2023-07-18T12:30:03.202Z,42.60
2023-07-18T12:36:06.785Z,43.10
2023-07-18T12:42:09.172Z,43.40
2023-07-18T12:48:11.633Z,42.30
2023-07-18T12:54:13.896Z,43.30
2023-07-18T13:00:16.748Z,42.20
2023-07-18T13:06:19.473Z,41.50
2023-07-18T13:12:22.405Z,40.90
2023-07-18T13:18:24.782Z,40.70
2023-07-18T13:24:27.367Z,40.20
2023-07-18T13:30:30.247Z,39.70
2023-07-18T13:36:33.654Z,39.10
2023-07-18T13:42:36.084Z,38.60
2023-07-18T13:48:39.517Z,38.10
2023-07-18T13:54:42.092Z,38.10
2023-07-18T14:00:45.329Z,38.00
2023-07-18T14:06:47.658Z,37.80
2023-07-18T14:12:50.411Z,37.90
2023-07-18T14:18:53.073Z,37.80
2023-07-18T14:24:55.340Z,37.60
2023-07-18T14:30:57.932Z,37.40
2023-07-18T14:37:00.325Z,37.50
2023-07-18T14:43:07.472Z,37.30
2023-07-18T14:49:09.706Z,37.20
2023-07-18T14:55:12.215Z,36.80
2023-07-18T15:01:15.002Z,37.10
2023-07-18T15:07:17.737Z,37.00
2023-07-18T15:13:20.156Z,37.00
2023-07-18T15:19:22.427Z,37.00
2023-07-18T15:25:24.891Z,36.80
2023-07-18T15:31:27.212Z,36.60
2023-07-18T15:37:29.611Z,36.30
2023-07-18T15:43:33.226Z,36.20
2023-07-18T15:49:36.550Z,36.00
2023-07-18T15:55:38.758Z,35.80
2023-07-18T16:01:41.241Z,35.50
2023-07-18T16:07:43.609Z,35.40
2023-07-18T16:13:47.496Z,35.20
2023-07-18T16:19:52.036Z,35.00
2023-07-18T16:25:54.262Z,34.90
2023-07-18T16:31:56.679Z,34.70
2023-07-18T16:37:58.960Z,34.50
2023-07-18T16:44:02.068Z,34.40
2023-07-18T16:50:04.606Z,34.10
2023-07-18T16:56:07.037Z,33.70
2023-07-18T17:02:09.567Z,33.40
2023-07-18T17:08:12.081Z,33.20
2023-07-18T17:14:14.481Z,33.00
2023-07-18T17:20:16.828Z,32.70
2023-07-18T17:26:22.285Z,32.60
2023-07-18T17:32:25.055Z,32.30
2023-07-18T17:38:30.228Z,32.00
2023-07-18T17:44:33.674Z,31.70
2023-07-18T17:50:36.129Z,31.50
2023-07-18T17:56:38.502Z,31.30
2023-07-18T18:02:41.195Z,31.10
2023-07-18T18:08:43.582Z,31.00
2023-07-18T18:14:46.299Z,30.90
2023-07-18T18:20:48.670Z,30.80
2023-07-18T18:26:50.905Z,30.70
2023-07-18T18:32:53.918Z,30.60
2023-07-18T18:38:56.732Z,30.40
2023-07-18T18:44:59.010Z,30.10
2023-07-18T18:51:01.937Z,30.00
2023-07-18T18:57:04.362Z,29.90
2023-07-18T19:03:06.933Z,29.80
2023-07-18T19:09:09.401Z,29.50
2023-07-18T19:15:11.992Z,29.50
2023-07-18T19:21:14.226Z,29.40
2023-07-18T19:27:16.706Z,29.40
2023-07-18T19:33:19.241Z,29.30
2023-07-18T19:39:22.414Z,29.30
2023-07-18T19:45:24.851Z,29.30
2023-07-18T19:51:27.198Z,29.20
2023-07-18T19:57:29.557Z,28.80
2023-07-18T20:03:40.862Z,28.60
2023-07-18T20:09:50.765Z,28.50
2023-07-18T20:15:55.134Z,28.50
2023-07-18T20:21:57.601Z,28.40
2023-07-18T20:28:01.137Z,28.30
2023-07-18T20:34:03.481Z,28.20
2023-07-18T20:40:06.231Z,28.10
2023-07-18T20:46:09.360Z,28.00
2023-07-18T20:52:11.784Z,28.10
2023-07-18T20:58:15.587Z,28.00
2023-07-18T21:04:18.333Z,27.90
2023-07-18T21:10:20.883Z,27.80
2023-07-18T21:16:23.577Z,27.70
2023-07-18T21:22:26.046Z,27.60
2023-07-18T21:28:28.651Z,27.60
2023-07-18T21:34:31.152Z,27.40
2023-07-18T21:40:33.527Z,27.40
2023-07-18T21:46:35.905Z,27.40
2023-07-18T21:52:38.282Z,27.40
2023-07-18T21:58:40.853Z,27.40
2023-07-18T22:04:43.319Z,27.40
2023-07-18T22:10:45.733Z,27.30
2023-07-18T22:16:49.097Z,27.30
2023-07-18T22:22:51.403Z,27.30
2023-07-18T22:28:53.747Z,27.20
2023-07-18T22:34:56.202Z,27.00
2023-07-18T22:41:00.133Z,26.90
2023-07-18T22:47:02.518Z,26.80
2023-07-18T22:53:06.849Z,26.60
2023-07-18T22:59:09.256Z,26.50
2023-07-18T23:05:11.788Z,26.50
2023-07-18T23:11:14.225Z,26.60
2023-07-18T23:17:16.666Z,26.20
2023-07-18T23:23:19.142Z,26.10
2023-07-18T23:29:21.622Z,25.90
2023-07-18T23:35:27.157Z,25.90
2023-07-18T23:41:30.143Z,25.90
2023-07-18T23:47:32.434Z,25.90
2023-07-18T23:53:35.040Z,25.90
2023-07-18T23:59:37.784Z,25.90
